createdAt,value
2022-10-19T00:01:18.804Z,100851.69
2022-10-19T00:06:27.992Z,100851.13
2022-10-19T00:09:00.463Z,100844.78
2022-10-19T00:11:30.605Z,100848.19
2022-10-19T00:13:59.700Z,100837.78
2022-10-19T00:16:30.633Z,100843.63
2022-10-19T00:18:59.867Z,100841.63
2022-10-19T00:21:28.144Z,100843.44
2022-10-19T00:23:56.134Z,100841.53
2022-10-19T00:26:23.774Z,100847.94
2022-10-19T00:28:55.158Z,100851.78
2022-10-19T00:31:22.969Z,100843.50
2022-10-19T00:33:50.807Z,100849.97
2022-10-19T00:36:27.654Z,100854.69
2022-10-19T00:38:56.600Z,100858.53
2022-10-19T00:41:27.871Z,100849.97
2022-10-19T00:44:01.342Z,100853.72
2022-10-19T00:46:32.337Z,100850.56
2022-10-19T00:49:20.199Z,100850.72
2022-10-19T00:51:54.406Z,100852.50
2022-10-19T00:54:23.556Z,100850.44
2022-10-19T00:56:54.751Z,100849.47
2022-10-19T00:59:25.276Z,100840.31
2022-10-19T01:01:54.337Z,100840.44
2022-10-19T01:04:23.812Z,100846.66
2022-10-19T01:06:52.769Z,100852.88
2022-10-19T01:09:20.711Z,100849.94
2022-10-19T01:12:16.024Z,100839.09
2022-10-19T01:15:02.483Z,100835.88
2022-10-19T01:18:02.008Z,100837.69
2022-10-19T01:20:56.325Z,100838.78
2022-10-19T01:23:23.947Z,100834.16
2022-10-19T01:25:51.642Z,100834.25
2022-10-19T01:28:58.910Z,100834.25
2022-10-19T01:31:45.033Z,100823.69
2022-10-19T01:34:30.595Z,100828.78
2022-10-19T01:37:23.248Z,100821.50
2022-10-19T01:40:02.722Z,100823.13
2022-10-19T01:42:42.619Z,100812.28
2022-10-19T01:45:28.609Z,100805.41
2022-10-19T01:48:05.374Z,100801.00
2022-10-19T01:50:40.932Z,100803.28
2022-10-19T01:53:11.411Z,100801.59
2022-10-19T01:55:43.159Z,100801.56
2022-10-19T01:58:16.557Z,100798.81
2022-10-19T02:00:47.044Z,100797.22
2022-10-19T02:03:15.973Z,100797.22
2022-10-19T02:05:45.185Z,100797.28
2022-10-19T02:08:31.894Z,100795.50
2022-10-19T02:11:01.463Z,100779.50
2022-10-19T02:13:30.755Z,100795.25
2022-10-19T02:16:02.994Z,100784.94
2022-10-19T02:18:35.618Z,100781.50
2022-10-19T02:21:05.298Z,100782.84
2022-10-19T02:23:33.241Z,100785.47
2022-10-19T02:26:00.970Z,100787.34
2022-10-19T02:28:30.350Z,100782.84
2022-10-19T02:30:59.828Z,100784.03
2022-10-19T02:33:28.927Z,100783.25
2022-10-19T02:35:57.220Z,100776.69
2022-10-19T02:38:25.615Z,100778.59
2022-10-19T02:41:02.687Z,100776.78
2022-10-19T02:43:34.525Z,100772.97
2022-10-19T02:46:11.199Z,100771.63
2022-10-19T02:48:41.837Z,100774.63
2022-10-19T02:51:32.682Z,100769.38
2022-10-19T02:54:04.154Z,100768.47
2022-10-19T02:56:34.835Z,100765.84
2022-10-19T02:59:03.533Z,100767.41
2022-10-19T03:01:31.435Z,100766.72
2022-10-19T03:03:59.242Z,100771.75
2022-10-19T03:06:26.797Z,100769.53
2022-10-19T03:08:54.686Z,100761.28
2022-10-19T03:11:22.278Z,100762.44
2022-10-19T03:13:50.066Z,100770.22
2022-10-19T03:16:17.993Z,100770.31
2022-10-19T03:18:47.857Z,100769.06
2022-10-19T03:21:15.486Z,100765.69
2022-10-19T03:23:43.241Z,100765.16
2022-10-19T03:26:14.120Z,100768.31
2022-10-19T03:28:42.588Z,100763.28
2022-10-19T03:31:10.561Z,100753.13
2022-10-19T03:33:38.290Z,100760.00
2022-10-19T03:36:22.705Z,100753.97
2022-10-19T03:38:55.158Z,100757.25
2022-10-19T03:41:25.619Z,100753.97
2022-10-19T03:43:53.642Z,100758.06
2022-10-19T03:46:21.769Z,100751.28
2022-10-19T03:48:49.695Z,100763.03
2022-10-19T03:51:24.729Z,100761.81
2022-10-19T03:53:54.016Z,100751.31
2022-10-19T03:56:24.182Z,100759.41
2022-10-19T03:58:53.606Z,100753.84
2022-10-19T04:01:26.953Z,100748.34
2022-10-19T04:03:57.039Z,100742.50
2022-10-19T04:06:31.412Z,100744.22
2022-10-19T04:09:00.403Z,100745.56
2022-10-19T04:11:30.898Z,100742.50
2022-10-19T04:13:59.676Z,100747.72
2022-10-19T04:16:29.330Z,100752.69
2022-10-19T04:18:57.499Z,100743.09
2022-10-19T04:21:27.856Z,100746.94
2022-10-19T04:24:00.479Z,100741.69
2022-10-19T04:26:28.280Z,100743.50
2022-10-19T04:28:58.628Z,100738.25
2022-10-19T04:31:27.938Z,100737.13
2022-10-19T04:33:56.494Z,100736.72
2022-10-19T04:36:24.420Z,100732.97
2022-10-19T04:38:52.745Z,100740.16
2022-10-19T04:41:22.523Z,100735.69
2022-10-19T04:43:57.811Z,100735.69
2022-10-19T04:46:26.857Z,100726.09
2022-10-19T04:48:55.666Z,100726.81
2022-10-19T04:51:24.474Z,100725.63
2022-10-19T04:53:55.635Z,100727.00
2022-10-19T04:56:27.758Z,100724.81
2022-10-19T04:58:57.502Z,100722.47
2022-10-19T05:01:27.088Z,100728.53
2022-10-19T05:04:00.713Z,100722.47
2022-10-19T05:06:29.559Z,100722.28
2022-10-19T05:08:57.606Z,100714.34
2022-10-19T05:11:25.383Z,100709.19
2022-10-19T05:13:53.348Z,100707.28
2022-10-19T05:16:24.505Z,100700.59
2022-10-19T05:18:58.958Z,100700.41
2022-10-19T05:21:28.826Z,100712.53
2022-10-19T05:23:57.862Z,100717.66
2022-10-19T05:26:30.157Z,100719.75
2022-10-19T05:29:04.754Z,100720.44
2022-10-19T05:31:34.027Z,100717.19
2022-10-19T05:34:03.986Z,100721.19
2022-10-19T05:36:34.893Z,100725.00
2022-10-19T05:39:21.102Z,100723.09
2022-10-19T05:41:49.080Z,100725.28
2022-10-19T05:44:22.259Z,100715.75
2022-10-19T05:46:51.603Z,100719.00
2022-10-19T05:49:21.336Z,100726.22
2022-10-19T05:51:49.591Z,100727.28
2022-10-19T05:54:18.385Z,100722.94
2022-10-19T05:56:46.926Z,100721.13
2022-10-19T05:59:17.895Z,100720.00
2022-10-19T06:01:46.354Z,100718.19
2022-10-19T06:04:15.070Z,100725.06
2022-10-19T06:06:43.447Z,100711.69
2022-10-19T06:09:11.360Z,100709.44
2022-10-19T06:11:41.733Z,100707.78
2022-10-19T06:14:13.367Z,100715.66
2022-10-19T06:16:41.507Z,100710.19
2022-10-19T06:19:09.422Z,100706.28
2022-10-19T06:21:39.567Z,100702.84
2022-10-19T06:24:11.933Z,100702.34
2022-10-19T06:26:40.135Z,100705.84
2022-10-19T06:29:08.435Z,100708.66
2022-10-19T06:31:37.317Z,100701.78
2022-10-19T06:34:05.532Z,100717.53
2022-10-19T06:36:33.641Z,100717.13
2022-10-19T06:39:02.065Z,100712.38
2022-10-19T06:41:31.583Z,100728.38
2022-10-19T06:44:14.407Z,100724.16
2022-10-19T06:46:42.014Z,100724.81
2022-10-19T06:49:14.181Z,100723.03
2022-10-19T06:51:42.214Z,100729.16
2022-10-19T06:54:10.142Z,100727.22
2022-10-19T06:56:37.806Z,100719.31
2022-10-19T06:59:05.708Z,100727.38
2022-10-19T07:01:33.655Z,100731.44
2022-10-19T07:04:02.683Z,100734.78
2022-10-19T07:06:30.293Z,100726.50
2022-10-19T07:08:58.199Z,100736.81
2022-10-19T07:11:25.772Z,100717.97
2022-10-19T07:13:54.097Z,100718.31
2022-10-19T07:16:22.065Z,100707.53
2022-10-19T07:18:53.734Z,100710.00
2022-10-19T07:21:23.113Z,100716.13
2022-10-19T07:23:51.203Z,100731.69
2022-10-19T07:26:27.644Z,100728.59
2022-10-19T07:28:58.705Z,100733.94
2022-10-19T07:31:28.763Z,100722.94
2022-10-19T07:33:58.876Z,100734.91
2022-10-19T07:36:27.789Z,100738.16
2022-10-19T07:38:56.656Z,100739.56
2022-10-19T07:41:26.043Z,100747.44
2022-10-19T07:43:54.318Z,100742.19
2022-10-19T07:46:25.625Z,100740.56
2022-10-19T07:48:54.311Z,100743.56
2022-10-19T07:51:22.969Z,100743.88
2022-10-19T07:53:51.190Z,100747.00
2022-10-19T07:56:21.129Z,100743.97
2022-10-19T07:58:50.814Z,100750.69
2022-10-19T08:01:20.872Z,100747.22
2022-10-19T08:06:38.357Z,100735.38
2022-10-19T08:09:07.605Z,100737.56
2022-10-19T08:11:35.951Z,100740.25
2022-10-19T08:14:05.026Z,100747.28
2022-10-19T08:16:34.433Z,100744.75
2022-10-19T08:19:07.038Z,100741.09
2022-10-19T08:21:36.396Z,100733.81
2022-10-19T08:24:04.703Z,100728.94
2022-10-19T08:26:34.015Z,100728.63
2022-10-19T08:29:03.919Z,100724.09
2022-10-19T08:31:31.811Z,100729.66
2022-10-19T08:33:59.762Z,100723.00
2022-10-19T08:36:31.218Z,100725.25
2022-10-19T08:39:00.057Z,100735.22
2022-10-19T08:41:33.589Z,100730.41
2022-10-19T08:44:22.634Z,100724.81
2022-10-19T08:47:09.302Z,100730.44
2022-10-19T08:49:37.884Z,100731.72
2022-10-19T08:52:13.743Z,100723.69
2022-10-19T08:54:49.675Z,100730.78
2022-10-19T08:57:45.234Z,100731.19
2022-10-19T09:00:28.200Z,100726.59
2022-10-19T09:03:11.388Z,100738.69
2022-10-19T09:06:02.335Z,100732.34
2022-10-19T09:08:30.456Z,100752.16
2022-10-19T09:10:58.837Z,100741.50
2022-10-19T09:14:04.337Z,100744.09
2022-10-19T09:16:35.044Z,100744.09
2022-10-19T09:19:11.562Z,100758.25
2022-10-19T09:21:57.045Z,100753.63
2022-10-19T09:24:46.336Z,100749.72
2022-10-19T09:27:25.679Z,100756.69
2022-10-19T09:30:05.411Z,100753.69
2022-10-19T09:32:35.332Z,100750.31
2022-10-19T09:35:16.326Z,100756.25
2022-10-19T09:37:48.507Z,100757.56
2022-10-19T09:40:22.975Z,100763.13
2022-10-19T09:42:56.991Z,100766.94
2022-10-19T09:45:24.549Z,100766.41
2022-10-19T09:47:53.490Z,100780.53
2022-10-19T09:50:23.606Z,100793.25
2022-10-19T09:53:05.084Z,100793.81
2022-10-19T09:55:39.402Z,100790.81
2022-10-19T09:58:18.015Z,100789.69
2022-10-19T10:00:55.112Z,100798.06
2022-10-19T10:03:43.309Z,100801.84
2022-10-19T10:06:17.852Z,100801.47
2022-10-19T10:08:49.584Z,100801.75
2022-10-19T10:11:26.909Z,100799.56
2022-10-19T10:13:56.507Z,100807.94
2022-10-19T10:16:33.673Z,100805.91
2022-10-19T10:19:05.768Z,100799.41
2022-10-19T10:21:46.786Z,100801.94
2022-10-19T10:24:16.358Z,100802.38
2022-10-19T10:26:46.642Z,100804.50
2022-10-19T10:29:24.234Z,100800.19
2022-10-19T10:31:59.629Z,100800.53
2022-10-19T10:34:51.915Z,100794.09
2022-10-19T10:37:43.227Z,100798.78
2022-10-19T10:40:31.448Z,100798.09
2022-10-19T10:43:23.793Z,100796.91
2022-10-19T10:45:54.068Z,100802.72
2022-10-19T10:48:36.213Z,100794.75
2022-10-19T10:51:08.347Z,100796.44
2022-10-19T10:53:41.078Z,100797.41
2022-10-19T10:56:26.454Z,100799.66
2022-10-19T10:59:04.266Z,100795.06
2022-10-19T11:01:44.720Z,100797.44
2022-10-19T11:04:21.934Z,100789.50
2022-10-19T11:06:59.197Z,100794.41
2022-10-19T11:09:42.183Z,100804.56
2022-10-19T11:12:19.232Z,100807.31
2022-10-19T11:14:56.474Z,100797.97
2022-10-19T11:17:31.222Z,100808.38
2022-10-19T11:19:59.354Z,100809.63
2022-10-19T11:22:41.895Z,100800.88
2022-10-19T11:25:32.534Z,100804.28
2022-10-19T11:28:34.553Z,100793.75
2022-10-19T11:31:21.926Z,100803.41
2022-10-19T11:34:10.506Z,100798.88
2022-10-19T11:36:37.981Z,100811.78
2022-10-19T11:39:24.612Z,100793.75
2022-10-19T11:42:32.158Z,100802.03
2022-10-19T11:45:27.638Z,100809.78
2022-10-19T11:48:25.314Z,100804.41
2022-10-19T11:51:17.040Z,100812.59
2022-10-19T11:54:16.271Z,100815.00
2022-10-19T11:57:07.328Z,100807.13
2022-10-19T12:00:13.672Z,100806.41
2022-10-19T12:02:49.286Z,100799.75
2022-10-19T12:05:40.846Z,100795.81
2022-10-19T12:08:20.726Z,100802.94
2022-10-19T12:11:24.407Z,100811.78
2022-10-19T12:13:56.951Z,100825.06
2022-10-19T12:16:34.916Z,100824.69
2022-10-19T12:19:04.936Z,100828.50
2022-10-19T12:21:38.191Z,100818.31
2022-10-19T12:24:19.438Z,100830.44
2022-10-19T12:26:49.007Z,100827.91
2022-10-19T12:29:23.117Z,100832.25
2022-10-19T12:31:52.217Z,100832.38
2022-10-19T12:34:33.569Z,100829.91
2022-10-19T12:37:28.202Z,100832.94
2022-10-19T12:40:27.958Z,100832.22
2022-10-19T12:43:01.622Z,100826.16
2022-10-19T12:45:38.262Z,100835.56
2022-10-19T12:48:08.881Z,100843.13
2022-10-19T12:50:49.157Z,100842.19
2022-10-19T12:53:36.149Z,100844.00
2022-10-19T12:56:10.216Z,100832.66
2022-10-19T12:58:54.407Z,100833.13
2022-10-19T13:01:51.305Z,100835.47
2022-10-19T13:04:24.701Z,100830.91
2022-10-19T13:07:04.554Z,100840.81
2022-10-19T13:09:48.222Z,100834.19
2022-10-19T13:12:19.661Z,100845.50
2022-10-19T13:14:56.012Z,100846.47
2022-10-19T13:17:43.940Z,100863.88
2022-10-19T13:20:14.569Z,100862.91
2022-10-19T13:22:48.935Z,100876.25
2022-10-19T13:25:32.172Z,100879.22
2022-10-19T13:28:09.365Z,100891.22
2022-10-19T13:30:41.809Z,100898.22
2022-10-19T13:33:34.958Z,100904.38
2022-10-19T13:36:08.871Z,100899.19
2022-10-19T13:38:56.836Z,100898.03
2022-10-19T13:41:27.180Z,100899.84
2022-10-19T13:44:02.885Z,100901.53
2022-10-19T13:46:30.523Z,100902.31
2022-10-19T13:49:27.809Z,100899.47
2022-10-19T13:52:25.783Z,100908.16
2022-10-19T13:55:20.973Z,100902.41
2022-10-19T13:58:14.129Z,100907.88
2022-10-19T14:00:57.296Z,100911.03
2022-10-19T14:03:50.007Z,100909.78
2022-10-19T14:06:40.092Z,100917.53
2022-10-19T14:09:19.630Z,100913.22
2022-10-19T14:11:51.521Z,100910.28
2022-10-19T14:14:22.686Z,100923.56
2022-10-19T14:16:54.466Z,100925.25
2022-10-19T14:19:28.728Z,100919.06
2022-10-19T14:21:59.913Z,100930.69
2022-10-19T14:24:35.038Z,100934.50
2022-10-19T14:27:06.122Z,100932.13
2022-10-19T14:29:54.363Z,100937.84
2022-10-19T14:32:26.546Z,100934.41
2022-10-19T14:34:57.619Z,100940.78
2022-10-19T14:37:27.225Z,100929.09
2022-10-19T14:40:26.635Z,100946.69
2022-10-19T14:42:57.240Z,100946.41
2022-10-19T14:45:32.501Z,100946.31
2022-10-19T14:48:05.037Z,100951.94
2022-10-19T14:50:52.893Z,100948.66
2022-10-19T14:53:35.672Z,100957.25
2022-10-19T14:56:12.609Z,100960.69
2022-10-19T14:58:53.443Z,100963.13
2022-10-19T15:01:21.667Z,100972.34
2022-10-19T15:03:51.118Z,100977.44
2022-10-19T15:06:31.497Z,100975.72
2022-10-19T15:09:04.270Z,100976.78
2022-10-19T15:11:41.282Z,100973.78
2022-10-19T15:14:19.127Z,100980.22
2022-10-19T15:16:54.518Z,100975.28
2022-10-19T15:19:40.436Z,100973.69
2022-10-19T15:22:16.349Z,100987.91
2022-10-19T15:24:56.461Z,100986.28
2022-10-19T15:27:31.430Z,100992.72
2022-10-19T15:30:18.891Z,100998.91
2022-10-19T15:32:51.704Z,101002.72
2022-10-19T15:35:30.019Z,101003.72
2022-10-19T15:38:07.926Z,101010.88
2022-10-19T15:40:39.204Z,101018.75
2022-10-19T15:43:34.904Z,101011.13
2022-10-19T15:46:25.295Z,101018.94
2022-10-19T15:48:55.589Z,101022.47
2022-10-19T15:51:26.659Z,101030.25
2022-10-19T15:53:54.300Z,101030.97
2022-10-19T15:56:24.411Z,101034.59
2022-10-19T15:58:54.456Z,101052.00
2022-10-19T16:01:26.168Z,101044.91
2022-10-19T16:03:54.585Z,101048.59
2022-10-19T16:06:26.299Z,101051.41
2022-10-19T16:08:54.213Z,101056.00
2022-10-19T16:11:23.226Z,101053.34
2022-10-19T16:13:51.277Z,101064.81
2022-10-19T16:16:24.027Z,101063.94
2022-10-19T16:18:52.709Z,101080.53
2022-10-19T16:21:23.573Z,101084.16
2022-10-19T16:23:51.241Z,101076.56
2022-10-19T16:26:20.207Z,101081.00
2022-10-19T16:28:48.777Z,101082.94
2022-10-19T16:31:17.731Z,101098.53
2022-10-19T16:33:45.510Z,101089.63
2022-10-19T16:36:13.501Z,101095.81
2022-10-19T16:38:41.219Z,101094.94
2022-10-19T16:41:11.148Z,101098.28
2022-10-19T16:43:39.050Z,101107.19
2022-10-19T16:46:07.020Z,101098.59
2022-10-19T16:48:34.833Z,101113.50
2022-10-19T16:51:10.339Z,101110.16
2022-10-19T16:53:38.795Z,101124.16
2022-10-19T16:56:11.274Z,101118.09
2022-10-19T16:58:40.174Z,101118.16
2022-10-19T17:01:18.430Z,101126.78
2022-10-19T17:03:47.507Z,101120.78
2022-10-19T17:06:16.510Z,101118.13
2022-10-19T17:09:20.191Z,101121.53
2022-10-19T17:11:34.376Z,101133.75
2022-10-19T17:14:05.073Z,101134.59
2022-10-19T17:16:34.793Z,101137.34
2022-10-19T17:19:03.960Z,101143.44
2022-10-19T17:21:34.554Z,101151.34
2022-10-19T17:24:05.461Z,101142.66
2022-10-19T17:26:39.300Z,101144.38
2022-10-19T17:29:07.894Z,101148.50
2022-10-19T17:31:38.039Z,101151.16
2022-10-19T17:34:06.274Z,101148.63
2022-10-19T17:36:44.250Z,101144.41
2022-10-19T17:39:17.474Z,101153.19
2022-10-19T17:41:46.913Z,101159.38
2022-10-19T17:44:15.514Z,101154.97
2022-10-19T17:46:44.143Z,101165.38
2022-10-19T17:49:12.672Z,101169.81
2022-10-19T17:51:41.156Z,101169.88
2022-10-19T17:54:14.214Z,101179.44
2022-10-19T17:56:45.095Z,101181.22
2022-10-19T17:59:13.690Z,101184.75
2022-10-19T18:01:41.807Z,101182.19
2022-10-19T18:04:09.419Z,101186.53
2022-10-19T18:06:38.459Z,101191.72
2022-10-19T18:09:09.207Z,101184.78
2022-10-19T18:11:41.663Z,101193.47
2022-10-19T18:14:11.614Z,101193.44
2022-10-19T18:16:41.240Z,101193.44
2022-10-19T18:19:10.919Z,101203.00
2022-10-19T18:21:42.066Z,101197.81
2022-10-19T18:24:15.247Z,101192.63
2022-10-19T18:26:43.765Z,101192.69
2022-10-19T18:29:16.165Z,101188.28
2022-10-19T18:31:49.063Z,101196.13
2022-10-19T18:34:17.423Z,101191.81
2022-10-19T18:36:45.686Z,101203.94
2022-10-19T18:39:13.993Z,101186.63
2022-10-19T18:41:42.432Z,101189.19
2022-10-19T18:44:13.204Z,101200.44
2022-10-19T18:46:41.623Z,101194.38
2022-10-19T18:49:11.141Z,101203.91
2022-10-19T18:51:39.204Z,101206.53
2022-10-19T18:54:06.875Z,101209.13
2022-10-19T18:56:36.567Z,101209.13
2022-10-19T18:59:05.179Z,101206.53
2022-10-19T19:01:33.171Z,101213.44
2022-10-19T19:04:07.104Z,101224.69
2022-10-19T19:06:36.261Z,101222.94
2022-10-19T19:09:07.991Z,101223.78
2022-10-19T19:11:40.699Z,101233.31
2022-10-19T19:14:13.402Z,101225.50
2022-10-19T19:16:42.509Z,101232.47
2022-10-19T19:19:13.024Z,101222.91
2022-10-19T19:21:43.979Z,101228.13
2022-10-19T19:24:18.198Z,101236.75
2022-10-19T19:26:51.925Z,101235.88
2022-10-19T19:29:21.050Z,101242.81
2022-10-19T19:31:49.094Z,101250.59
2022-10-19T19:34:17.066Z,101248.88
2022-10-19T19:36:48.843Z,101255.78
2022-10-19T19:39:20.163Z,101264.47
2022-10-19T19:41:49.547Z,101258.38
2022-10-19T19:44:17.742Z,101267.91
2022-10-19T19:46:45.584Z,101267.88
2022-10-19T19:49:13.758Z,101269.63
2022-10-19T19:51:41.637Z,101266.19
2022-10-19T19:54:09.344Z,101273.97
2022-10-19T19:56:37.517Z,101273.13
2022-10-19T19:59:05.291Z,101273.97
2022-10-19T20:01:33.600Z,101283.47
2022-10-19T20:06:37.370Z,101286.09
2022-10-19T20:09:06.865Z,101289.53
2022-10-19T20:11:37.257Z,101296.44
2022-10-19T20:14:07.447Z,101304.19
2022-10-19T20:16:35.581Z,101305.09
2022-10-19T20:19:12.836Z,101302.50
2022-10-19T20:21:41.528Z,101307.66
2022-10-19T20:24:10.086Z,101312.84
2022-10-19T20:26:38.059Z,101307.59
2022-10-19T20:29:06.102Z,101310.25
2022-10-19T20:31:39.335Z,101312.81
2022-10-19T20:34:13.961Z,101315.38
2022-10-19T20:36:42.284Z,101323.16
2022-10-19T20:39:10.513Z,101326.63
2022-10-19T20:41:38.645Z,101324.84
2022-10-19T20:44:06.667Z,101324.84
2022-10-19T20:46:34.510Z,101336.06
2022-10-19T20:49:03.187Z,101336.94
2022-10-19T20:51:36.883Z,101327.47
2022-10-19T20:54:12.107Z,101342.16
2022-10-19T20:56:41.577Z,101325.69
2022-10-19T20:59:13.565Z,101330.81
2022-10-19T21:01:43.128Z,101337.78
2022-10-19T21:04:12.931Z,101336.03
2022-10-19T21:06:46.747Z,101327.34
2022-10-19T21:09:17.516Z,101337.75
2022-10-19T21:11:47.348Z,101336.84
2022-10-19T21:14:23.726Z,101331.66
2022-10-19T21:16:56.605Z,101334.22
2022-10-19T21:19:26.082Z,101333.38
2022-10-19T21:22:01.607Z,101337.69
2022-10-19T21:24:33.161Z,101350.66
2022-10-19T21:27:03.800Z,101344.50
2022-10-19T21:29:32.103Z,101346.19
2022-10-19T21:32:00.175Z,101343.63
2022-10-19T21:34:29.774Z,101341.00
2022-10-19T21:36:57.863Z,101350.47
2022-10-19T21:39:25.510Z,101350.47
2022-10-19T21:41:53.432Z,101348.72
2022-10-19T21:44:23.093Z,101353.00
2022-10-19T21:46:51.059Z,101351.22
2022-10-19T21:49:19.162Z,101359.03
2022-10-19T21:51:53.593Z,101358.19
2022-10-19T21:54:24.756Z,101357.34
2022-10-19T21:56:53.458Z,101354.00
2022-10-19T21:59:21.186Z,101352.22
2022-10-19T22:01:49.238Z,101350.47
2022-10-19T22:04:18.096Z,101346.97
2022-10-19T22:06:46.849Z,101350.41
2022-10-19T22:09:17.489Z,101352.94
2022-10-19T22:11:45.864Z,101352.06
2022-10-19T22:14:15.377Z,101350.34
2022-10-19T22:16:43.141Z,101346.84
2022-10-19T22:19:11.597Z,101353.72
2022-10-19T22:21:40.313Z,101354.56
2022-10-19T22:24:11.499Z,101354.53
2022-10-19T22:26:45.738Z,101355.38
2022-10-19T22:29:14.207Z,101351.81
2022-10-19T22:31:42.249Z,101356.13
2022-10-19T22:34:14.620Z,101357.84
2022-10-19T22:36:43.231Z,101368.19
2022-10-19T22:39:11.083Z,101369.81
2022-10-19T22:41:38.770Z,101379.25
2022-10-19T22:44:06.656Z,101369.72
2022-10-19T22:46:34.480Z,101372.44
2022-10-19T22:49:03.200Z,101367.22
2022-10-19T22:51:31.034Z,101384.44
2022-10-19T22:53:58.546Z,101387.88
2022-10-19T22:56:26.497Z,101387.81
2022-10-19T22:58:57.619Z,101387.94
2022-10-19T23:01:25.740Z,101387.91
2022-10-19T23:03:53.902Z,101389.56
2022-10-19T23:06:22.418Z,101403.34
2022-10-19T23:08:50.316Z,101397.25
2022-10-19T23:11:18.079Z,101398.84
2022-10-19T23:13:45.626Z,101399.72
2022-10-19T23:16:13.582Z,101391.09
2022-10-19T23:18:41.572Z,101404.03
2022-10-19T23:21:13.092Z,101404.91
2022-10-19T23:23:41.661Z,101403.19
2022-10-19T23:26:18.792Z,101396.28
2022-10-19T23:28:49.036Z,101405.69
2022-10-19T23:31:26.579Z,101407.44
2022-10-19T23:33:54.930Z,101413.53
2022-10-19T23:36:25.499Z,101414.38
2022-10-19T23:38:54.149Z,101412.59
2022-10-19T23:41:23.048Z,101425.53
2022-10-19T23:43:50.907Z,101419.44
2022-10-19T23:46:18.923Z,101430.72
2022-10-19T23:48:46.543Z,101428.06
2022-10-19T23:51:20.061Z,101431.53
2022-10-19T23:53:50.228Z,101443.63
2022-10-19T23:56:29.448Z,101439.25
2022-10-19T23:58:57.203Z,101440.94
